Noi Bai International Airport (HAN/VVNB)





Airport Information
Location: Hanoi,
Coordinates: 21.2212 / 105.807
Field Elevation: 39ft
Longest Runway: 12,468ft
ILS Approaches: YES
Landing Fees: $999 per flight
Jet A Price: $0.22/lbs

Current Weather
METAR: VVNB 020530Z VRB03KT 9999 SCT030 34/28 Q0998 NOSIG
TAF: TAF VVNB 012300Z 0200/0224 21006KT 9999 SCT020

Recent Arrivals
Date Flight Type Depart
Recent Departures
Date Flight Type Arrive